Flight Track Log - Related Links

Times and Time Zones

All times are in EST time to prevent confusion due to time zone crossing. See the SWA2383 flight status page for this flight to view local times or setup timezone preferences in your user account.

Time Position Orientation Groundspeed Altitude Reporting Facility
EST Latitude Longitude Course Direction KTS MPH feet Rate Location/Type
Sat 05:28:41 PM 37.6667 -122.1500 122° Southeast 236 272 2,700  Level Northern Cal TRACON
Sat 05:29:41 PM 37.6500 -122.0833 108° East 265 305 5,200 2,623 Climbing Northern Cal TRACON
Sat 05:31:12 PM 37.7447 -122.0056 33° Northeast 302 348 9,300 2,724 Climbing Oakland Center
Sat 05:32:13 PM 37.8472 -122.0172 355° North 312 359 12,100 2,803 Climbing Oakland Center
Sat 05:33:14 PM 37.9389 -122.0269 355° North 330 380 15,000 2,705 Climbing Oakland Center
Sat 05:34:15 PM 38.0344 -122.0361 356° North 340 391 17,600 2,213 Climbing Oakland Center
Sat 05:35:16 PM 38.1336 -122.0450 356° North 355 409 19,500 1,770 Climbing Oakland Center
Sat 05:36:17 PM 38.2378 -122.0550 356° North 372 428 21,200 1,770 Climbing Oakland Center
Sat 05:37:18 PM 38.3478 -122.0644 356° North 391 450 23,100 1,820 Climbing Oakland Center
Sat 05:38:19 PM 38.4581 -122.0764 355° North 396 456 24,900 1,820 Climbing Oakland Center
Sat 05:39:20 PM 38.5708 -122.0875 356° North 404 465 26,800 1,426 Climbing Oakland Center
Sat 05:40:21 PM 38.6917 -122.0978 356° North 410 472 27,800 1,131 Climbing Oakland Center
Sat 05:41:22 PM 38.8117 -122.1108 355° North 425 489 29,100 1,328 Climbing Oakland Center
Sat 05:42:23 PM 38.9322 -122.1208 356° North 430 495 30,500 1,426 Climbing Oakland Center
Sat 05:43:24 PM 39.0514 -122.1336 355° North 429 494 32,000 1,426 Climbing Oakland Center
Sat 05:44:25 PM 39.1692 -122.1456 356° North 425 489 33,400 1,275 Climbing Oakland Center
Sat 05:46:04 PM 39.3719 -122.1664 355° North 417 480 35,400 975 Climbing Seattle Center
Sat 05:47:05 PM 39.4878 -122.1764 356° North 417 480 36,000 198 Climbing Seattle Center
Sat 05:49:06 PM 39.7189 -122.1992 356° North 420 483 36,000  Level Seattle Center
Sat 05:50:31 PM 39.8861 -122.2153 356° North 431 496 36,000  Level Oakland Center
Sat 05:52:08 PM 40.0772 -122.2331 356° North 436 502 36,000  Level Seattle Center
Sat 05:53:09 PM 40.2178 -122.2417 357° North 446 513 36,000  Level Seattle Center
Sat 05:54:09 PM 40.3386 -122.2494 357° North 444 511 36,000  Level Seattle Center
Sat 05:55:10 PM 40.4608 -122.2583 357° North 443 510 36,000  Level Seattle Center
Sat 05:56:10 PM 40.5847 -122.2664 357° North 446 513 36,000  Level Seattle Center
Sat 05:57:11 PM 40.7081 -122.2736 357° North 445 512 36,000  Level Seattle Center
Sat 05:58:12 PM 40.8325 -122.2803 358° North 447 514 36,000  Level Seattle Center
Sat 05:59:12 PM 40.9561 -122.2883 357° North 446 513 36,000  Level Seattle Center
Sat 06:00:42 PM 41.1294 -122.2947 358° North 448 516 36,000  Level Oakland Center
Sat 06:02:14 PM 41.3275 -122.3089 357° North 446 513 36,000  Level Seattle Center
Sat 06:03:15 PM 41.4650 -122.3183 357° North 449 517 36,000  Level Seattle Center
Sat 06:04:16 PM 41.5906 -122.3239 358° North 450 518 36,000  Level Seattle Center
Sat 06:05:16 PM 41.7142 -122.3319 357° North 446 513 36,000  Level Seattle Center
Sat 06:06:17 PM 41.8419 -122.3392 358° North 454 522 36,000  Level Seattle Center
Sat 06:07:17 PM 41.9675 -122.3481 357° North 446 513 36,000  Level Seattle Center
Sat 06:08:18 PM 42.0947 -122.3539 358° North 454 522 36,000  Level Seattle Center
Sat 06:09:19 PM 42.2214 -122.3622 357° North 450 518 36,000  Level Seattle Center
Sat 06:10:19 PM 42.3456 -122.3686 358° North 445 512 36,000  Level Seattle Center
Sat 06:11:20 PM 42.4667 -122.3764 357° North 436 502 36,000  Level Seattle Center
Sat 06:13:21 PM 42.7067 -122.3919 357° North 432 497 36,000  Level Seattle Center
Sat 06:14:22 PM 42.8225 -122.3978 358° North 444 511 36,000  Level Seattle Center
Sat 06:16:23 PM 43.0614 -122.4128 357° North 431 496 36,000  Level Seattle Center
Sat 06:17:23 PM 43.1775 -122.4186 358° North 422 486 36,000 -198 Level Seattle Center
Sat 06:18:24 PM 43.2958 -122.4281 357° North 425 489 35,600 -689 Descending Seattle Center
Sat 06:19:25 PM 43.4125 -122.4336 358° North 423 487 34,600 -793 Descending Seattle Center
Sat 06:20:25 PM 43.5303 -122.4414 357° North 424 488 34,000 -298 Descending Seattle Center
Sat 06:21:26 PM 43.6719 -122.4514 357° North 428 493 34,000  Level Seattle Center
Sat 06:22:26 PM 43.7903 -122.4597 357° North 430 495 34,000  Level Seattle Center
Sat 06:23:27 PM 43.9089 -122.4669 357° North 431 496 34,000  Level Seattle Center
Sat 06:24:28 PM 44.0269 -122.4764 357° North 430 495 34,000  Level Seattle Center
Sat 06:25:28 PM 44.1444 -122.4836 357° North 428 493 34,000  Level Seattle Center
Sat 06:26:29 PM 44.2631 -122.4908 358° North 429 494 34,000  Level Seattle Center
Sat 06:27:30 PM 44.3811 -122.5006 357° North 429 494 34,000  Level Seattle Center
Sat 06:28:30 PM 44.5003 -122.5078 358° North 430 495 34,000  Level Seattle Center
Sat 06:29:31 PM 44.6186 -122.5161 357° North 430 495 34,000  Level Seattle Center
Sat 06:30:32 PM 44.7372 -122.5239 357° North 428 493 34,000  Level Seattle Center
Sat 06:32:33 PM 44.9714 -122.5392 357° North 428 493 34,000  Level Seattle Center
Sat 06:33:34 PM 45.1150 -122.5500 357° North 434 499 34,000  Level Seattle Center
Sat 06:35:35 PM 45.3558 -122.5644 358° North 437 503 34,000  Level Seattle Center
Sat 06:36:36 PM 45.4756 -122.5722 357° North 435 501 34,000  Level Seattle Center
Sat 06:37:36 PM 45.5967 -122.5797 358° North 436 502 34,000  Level Seattle Center
Sat 06:38:37 PM 45.7186 -122.5897 357° North 439 505 34,000 -344 Level Seattle Center
Sat 06:39:38 PM 45.8358 -122.6117 353° North 425 489 33,300 -1,934 Descending Seattle Center
Sat 06:40:38 PM 45.9536 -122.6414 350° North 431 496 30,100 -2,637 Descending Seattle Center
Sat 06:42:40 PM 46.1869 -122.6983 350° North 423 487 25,300 -2,407 Descending Seattle Center
Sat 06:43:40 PM 46.3089 -122.7181 354° North 405 466 22,800 -2,331 Descending Seattle Center
Sat 06:44:41 PM 46.4211 -122.7267 357° North 404 465 20,600 -2,115 Descending Seattle Center
Sat 06:45:42 PM 46.5267 -122.7306 359° North 384 442 18,500 -2,211 Descending Seattle Center
Sat 06:46:35 PM 46.6233 -122.7344 358° North 364 419 16,400 -2,100 Descending Seattle Center
Sat 06:46:42 PM 46.6286 -122.7328 12° North 367 422 16,400 -2,066 Level Seattle Center
Sat 06:47:36 PM 46.7242 -122.7386 358° North 359 413 14,300 -2,066 Descending Seattle Center
Sat 06:47:43 PM 46.7317 -122.7353 17° North 363 418 14,300 -1,970 Level Seattle Center
Sat 06:48:43 PM 46.8308 -122.6831 20° North 378 435 12,100 -1,884 Descending Seattle Center
Sat 06:49:44 PM 46.9017 -122.5878 43° Northeast 348 400 10,500 -1,159 Descending Seattle Center
Sat 06:51:39 PM 46.9725 -122.3878 10° North 273 314 8,700 -893 Descending Seattle Center
Sat 06:51:45 PM 46.9736 -122.3794 79° East 281 323 8,700 -982 Level Seattle Center
Sat 06:52:34 PM 46.9864 -122.3022 76° East 253 291 7,800 -984 Descending Seattle Center
Sat 06:52:46 PM 46.9981 -122.2861 43° Northeast 261 300 7,700 -806 Descending Seattle Center
Sat 06:53:41 PM 47.0550 -122.3103 344° North 242 278 6,900 -700 Descending Seattle Center
Sat 06:53:46 PM 47.0608 -122.3136 339° North 250 288 7,000 -885 Climbing Seattle Center
Sat 06:54:42 PM 47.1183 -122.3147 359° North 226 260 6,000 -885 Descending Seattle Center
Sat 06:54:47 PM 47.1250 -122.3139 North 233 268 6,100 -197 Climbing Seattle Center
Sat 06:55:43 PM 47.1822 -122.3122 North 226 260 5,800 -300 Descending Seattle Center
Sat 06:55:47 PM 47.1869 -122.3131 353° North 223 257 5,800 -1,385 Level Seattle Center
Sat 06:56:48 PM 47.2450 -122.3125 360° North 213 245 4,300 -1,333 Descending Seattle Center
Sat 06:57:44 PM 47.3003 -122.3128 360° North 199 229 3,200 -1,100 Descending Seattle Center
Sat 06:57:48 PM 47.3039 -122.3119 North 191 220 3,200 -982 Level Seattle Center
Sat 06:58:39 PM 47.3422 -122.3125 359° North 178 205 2,300 -984 Descending Seattle Center
Sat 06:58:49 PM 47.3528 -122.3119 North 179 206 2,200 -771 Descending Seattle Center
Sat 06:59:49 PM 47.3914 -122.3119 360° North 146 168 1,400 -744 Descending Seattle Center
Sat 07:00:50 PM 47.4297 -122.3114 North 139 160 700 -762 Descending Seattle Center
Sat 07:00:52 PM 47.4294 -122.3136 260° West 136 157 600 -200 Descending Seattle Center
Sat 07:01:50 PM 47.4619 -122.3114 North 139 160 500 -103 Descending Seattle Center
Sat 07:03:00 PM 47.4499 -122.3118 132° Southeast  Level Estimated

Login

Don't have an account? Register now (free) for customized features, flight alerts, and more!